sensor_id;sensor_type;location;lat;lon;timestamp;P1;durP1;ratioP1;P2;durP2;ratioP2
12224;SDS011;6175;50.956;11.064;2022-10-03T00:02:18;7.60;;;3.00;;
12224;SDS011;6175;50.956;11.064;2022-10-03T00:05:13;10.57;;;2.55;;
12224;SDS011;6175;50.956;11.064;2022-10-03T00:08:02;2.72;;;2.13;;
12224;SDS011;6175;50.956;11.064;2022-10-03T00:10:37;4.22;;;2.22;;
12224;SDS011;6175;50.956;11.064;2022-10-03T00:13:17;4.65;;;2.15;;
12224;SDS011;6175;50.956;11.064;2022-10-03T00:15:52;5.38;;;2.63;;
12224;SDS011;6175;50.956;11.064;2022-10-03T00:18:30;5.63;;;2.67;;
12224;SDS011;6175;50.956;11.064;2022-10-03T00:21:16;6.57;;;2.72;;
12224;SDS011;6175;50.956;11.064;2022-10-03T00:23:48;7.28;;;2.70;;
12224;SDS011;6175;50.956;11.064;2022-10-03T00:26:24;7.15;;;2.58;;
12224;SDS011;6175;50.956;11.064;2022-10-03T00:29:02;6.78;;;3.10;;
12224;SDS011;6175;50.956;11.064;2022-10-03T00:31:43;6.25;;;2.40;;
12224;SDS011;6175;50.956;11.064;2022-10-03T00:34:22;5.95;;;2.40;;
12224;SDS011;6175;50.956;11.064;2022-10-03T00:36:56;7.28;;;2.50;;
12224;SDS011;6175;50.956;11.064;2022-10-03T00:39:41;4.85;;;2.50;;
12224;SDS011;6175;50.956;11.064;2022-10-03T00:42:46;3.83;;;2.15;;
12224;SDS011;6175;50.956;11.064;2022-10-03T00:45:42;9.32;;;3.10;;
12224;SDS011;6175;50.956;11.064;2022-10-03T00:48:38;3.67;;;2.40;;
12224;SDS011;6175;50.956;11.064;2022-10-03T00:51:12;6.85;;;2.75;;
12224;SDS011;6175;50.956;11.064;2022-10-03T00:53:55;5.45;;;2.47;;
12224;SDS011;6175;50.956;11.064;2022-10-03T00:56:48;6.70;;;2.92;;
12224;SDS011;6175;50.956;11.064;2022-10-03T00:59:27;6.32;;;2.97;;
12224;SDS011;6175;50.956;11.064;2022-10-03T01:05:02;6.22;;;2.72;;
12224;SDS011;6175;50.956;11.064;2022-10-03T01:10:52;4.40;;;2.60;;
12224;SDS011;6175;50.956;11.064;2022-10-03T01:13:29;6.40;;;2.53;;
12224;SDS011;6175;50.956;11.064;2022-10-03T01:16:09;7.43;;;2.97;;
12224;SDS011;6175;50.956;11.064;2022-10-03T01:18:42;5.45;;;2.63;;
12224;SDS011;6175;50.956;11.064;2022-10-03T01:21:14;6.55;;;2.85;;
12224;SDS011;6175;50.956;11.064;2022-10-03T01:27:12;4.00;;;2.38;;
12224;SDS011;6175;50.956;11.064;2022-10-03T01:29:45;5.78;;;2.60;;
12224;SDS011;6175;50.956;11.064;2022-10-03T01:32:36;6.70;;;2.60;;
12224;SDS011;6175;50.956;11.064;2022-10-03T01:35:16;6.63;;;2.50;;
12224;SDS011;6175;50.956;11.064;2022-10-03T01:37:51;4.40;;;2.47;;
12224;SDS011;6175;50.956;11.064;2022-10-03T01:40:23;5.75;;;2.47;;
12224;SDS011;6175;50.956;11.064;2022-10-03T01:42:56;7.00;;;2.45;;
12224;SDS011;6175;50.956;11.064;2022-10-03T01:45:30;7.63;;;2.70;;
12224;SDS011;6175;50.956;11.064;2022-10-03T01:48:08;5.55;;;2.53;;
12224;SDS011;6175;50.956;11.064;2022-10-03T01:50:44;9.65;;;2.92;;
12224;SDS011;6175;50.956;11.064;2022-10-03T01:53:18;6.03;;;2.47;;
12224;SDS011;6175;50.956;11.064;2022-10-03T01:55:56;5.32;;;2.80;;
12224;SDS011;6175;50.956;11.064;2022-10-03T01:58:26;10.55;;;2.72;;
12224;SDS011;6175;50.956;11.064;2022-10-03T02:00:57;6.35;;;2.78;;
12224;SDS011;6175;50.956;11.064;2022-10-03T02:03:34;7.15;;;2.50;;
12224;SDS011;6175;50.956;11.064;2022-10-03T02:06:13;9.68;;;2.95;;
12224;SDS011;6175;50.956;11.064;2022-10-03T02:08:49;7.70;;;2.60;;
12224;SDS011;6175;50.956;11.064;2022-10-03T02:11:21;4.93;;;2.28;;
12224;SDS011;6175;50.956;11.064;2022-10-03T02:13:57;8.95;;;2.90;;
12224;SDS011;6175;50.956;11.064;2022-10-03T02:16:35;7.43;;;3.30;;
12224;SDS011;6175;50.956;11.064;2022-10-03T02:19:10;5.47;;;2.70;;
12224;SDS011;6175;50.956;11.064;2022-10-03T02:21:44;9.40;;;3.05;;
12224;SDS011;6175;50.956;11.064;2022-10-03T02:24:17;5.03;;;2.15;;
12224;SDS011;6175;50.956;11.064;2022-10-03T02:30:09;8.27;;;2.83;;
12224;SDS011;6175;50.956;11.064;2022-10-03T02:32:55;6.57;;;2.72;;
12224;SDS011;6175;50.956;11.064;2022-10-03T02:39:00;11.05;;;3.00;;
12224;SDS011;6175;50.956;11.064;2022-10-03T02:41:52;6.20;;;2.72;;
12224;SDS011;6175;50.956;11.064;2022-10-03T02:51:04;5.82;;;2.38;;
12224;SDS011;6175;50.956;11.064;2022-10-03T03:00:16;5.53;;;2.58;;
12224;SDS011;6175;50.956;11.064;2022-10-03T03:06:03;7.10;;;3.10;;
12224;SDS011;6175;50.956;11.064;2022-10-03T03:09:16;10.38;;;2.90;;
12224;SDS011;6175;50.956;11.064;2022-10-03T03:18:13;7.55;;;3.03;;
12224;SDS011;6175;50.956;11.064;2022-10-03T03:20:52;7.68;;;3.33;;
12224;SDS011;6175;50.956;11.064;2022-10-03T03:23:33;4.72;;;2.80;;
12224;SDS011;6175;50.956;11.064;2022-10-03T03:28:55;8.60;;;2.95;;
12224;SDS011;6175;50.956;11.064;2022-10-03T03:31:35;4.45;;;2.63;;
12224;SDS011;6175;50.956;11.064;2022-10-03T03:34:08;9.65;;;3.13;;
12224;SDS011;6175;50.956;11.064;2022-10-03T03:36:40;6.80;;;3.05;;
12224;SDS011;6175;50.956;11.064;2022-10-03T03:39:25;9.40;;;2.72;;
12224;SDS011;6175;50.956;11.064;2022-10-03T03:42:03;7.28;;;2.97;;
12224;SDS011;6175;50.956;11.064;2022-10-03T03:44:39;8.45;;;3.10;;
12224;SDS011;6175;50.956;11.064;2022-10-03T03:47:46;6.40;;;2.85;;
12224;SDS011;6175;50.956;11.064;2022-10-03T03:50:32;8.48;;;2.70;;
12224;SDS011;6175;50.956;11.064;2022-10-03T03:53:05;6.35;;;3.00;;
12224;SDS011;6175;50.956;11.064;2022-10-03T03:59:12;10.38;;;3.28;;
12224;SDS011;6175;50.956;11.064;2022-10-03T04:01:55;9.98;;;3.35;;
12224;SDS011;6175;50.956;11.064;2022-10-03T04:04:39;5.63;;;2.80;;
12224;SDS011;6175;50.956;11.064;2022-10-03T04:07:24;6.32;;;3.17;;
12224;SDS011;6175;50.956;11.064;2022-10-03T04:10:09;7.93;;;2.92;;
12224;SDS011;6175;50.956;11.064;2022-10-03T04:12:54;10.88;;;3.15;;
12224;SDS011;6175;50.956;11.064;2022-10-03T04:15:54;8.13;;;2.53;;
12224;SDS011;6175;50.956;11.064;2022-10-03T04:18:41;9.00;;;2.95;;
12224;SDS011;6175;50.956;11.064;2022-10-03T04:21:28;6.80;;;3.35;;
12224;SDS011;6175;50.956;11.064;2022-10-03T04:24:07;9.75;;;3.33;;
12224;SDS011;6175;50.956;11.064;2022-10-03T04:27:05;8.48;;;2.95;;
12224;SDS011;6175;50.956;11.064;2022-10-03T04:29:42;8.43;;;2.80;;
12224;SDS011;6175;50.956;11.064;2022-10-03T04:32:20;7.15;;;2.70;;
12224;SDS011;6175;50.956;11.064;2022-10-03T04:35:07;9.00;;;2.88;;
12224;SDS011;6175;50.956;11.064;2022-10-03T04:37:51;6.72;;;2.95;;
12224;SDS011;6175;50.956;11.064;2022-10-03T04:40:32;7.63;;;3.25;;
12224;SDS011;6175;50.956;11.064;2022-10-03T04:43:10;12.98;;;3.80;;
12224;SDS011;6175;50.956;11.064;2022-10-03T04:45:47;11.75;;;3.78;;
12224;SDS011;6175;50.956;11.064;2022-10-03T04:48:23;9.55;;;2.75;;
12224;SDS011;6175;50.956;11.064;2022-10-03T04:50:56;8.50;;;3.00;;
12224;SDS011;6175;50.956;11.064;2022-10-03T04:53:36;12.77;;;3.60;;
12224;SDS011;6175;50.956;11.064;2022-10-03T04:56:18;9.50;;;3.08;;
12224;SDS011;6175;50.956;11.064;2022-10-03T04:58:53;11.32;;;2.90;;
12224;SDS011;6175;50.956;11.064;2022-10-03T05:01:32;7.47;;;3.10;;
12224;SDS011;6175;50.956;11.064;2022-10-03T05:04:08;6.22;;;3.00;;
12224;SDS011;6175;50.956;11.064;2022-10-03T05:06:53;9.88;;;3.00;;
12224;SDS011;6175;50.956;11.064;2022-10-03T05:09:29;9.35;;;3.10;;
12224;SDS011;6175;50.956;11.064;2022-10-03T05:12:05;6.80;;;2.70;;
12224;SDS011;6175;50.956;11.064;2022-10-03T05:14:43;4.70;;;2.97;;
12224;SDS011;6175;50.956;11.064;2022-10-03T05:17:20;6.68;;;2.85;;
12224;SDS011;6175;50.956;11.064;2022-10-03T05:20:00;7.80;;;2.88;;
12224;SDS011;6175;50.956;11.064;2022-10-03T05:22:41;6.82;;;2.50;;
12224;SDS011;6175;50.956;11.064;2022-10-03T05:25:17;10.95;;;2.85;;
12224;SDS011;6175;50.956;11.064;2022-10-03T05:27:50;6.05;;;2.58;;
12224;SDS011;6175;50.956;11.064;2022-10-03T05:30:30;10.13;;;3.13;;
12224;SDS011;6175;50.956;11.064;2022-10-03T05:33:10;8.68;;;3.25;;
12224;SDS011;6175;50.956;11.064;2022-10-03T05:35:54;4.88;;;2.28;;
12224;SDS011;6175;50.956;11.064;2022-10-03T05:38:46;10.85;;;3.30;;
12224;SDS011;6175;50.956;11.064;2022-10-03T05:41:25;7.72;;;3.08;;
12224;SDS011;6175;50.956;11.064;2022-10-03T05:43:59;4.32;;;2.60;;
12224;SDS011;6175;50.956;11.064;2022-10-03T05:49:22;5.13;;;2.78;;
12224;SDS011;6175;50.956;11.064;2022-10-03T05:52:10;5.35;;;2.83;;
12224;SDS011;6175;50.956;11.064;2022-10-03T05:54:53;9.18;;;3.42;;
12224;SDS011;6175;50.956;11.064;2022-10-03T06:00:38;7.72;;;3.00;;
12224;SDS011;6175;50.956;11.064;2022-10-03T06:06:18;9.07;;;3.08;;
12224;SDS011;6175;50.956;11.064;2022-10-03T06:08:53;9.93;;;3.33;;
12224;SDS011;6175;50.956;11.064;2022-10-03T06:11:54;7.85;;;2.95;;
12224;SDS011;6175;50.956;11.064;2022-10-03T06:14:31;6.72;;;2.85;;
12224;SDS011;6175;50.956;11.064;2022-10-03T06:17:03;11.48;;;3.47;;
12224;SDS011;6175;50.956;11.064;2022-10-03T06:19:39;8.60;;;3.33;;
12224;SDS011;6175;50.956;11.064;2022-10-03T06:28:53;8.77;;;3.22;;
12224;SDS011;6175;50.956;11.064;2022-10-03T06:31:46;5.75;;;3.20;;
12224;SDS011;6175;50.956;11.064;2022-10-03T06:38:06;8.90;;;3.55;;
12224;SDS011;6175;50.956;11.064;2022-10-03T06:40:52;7.43;;;2.97;;
12224;SDS011;6175;50.956;11.064;2022-10-03T06:43:54;9.10;;;3.17;;
12224;SDS011;6175;50.956;11.064;2022-10-03T06:46:45;6.13;;;3.38;;
12224;SDS011;6175;50.956;11.064;2022-10-03T06:49:34;7.78;;;3.15;;
12224;SDS011;6175;50.956;11.064;2022-10-03T06:52:34;10.23;;;3.65;;
12224;SDS011;6175;50.956;11.064;2022-10-03T06:58:45;11.93;;;2.70;;
12224;SDS011;6175;50.956;11.064;2022-10-03T07:05:02;6.13;;;2.70;;
12224;SDS011;6175;50.956;11.064;2022-10-03T07:11:04;7.05;;;2.78;;
12224;SDS011;6175;50.956;11.064;2022-10-03T07:23:08;6.20;;;2.70;;
12224;SDS011;6175;50.956;11.064;2022-10-03T07:32:12;5.95;;;2.88;;
12224;SDS011;6175;50.956;11.064;2022-10-03T07:35:02;5.20;;;2.70;;
12224;SDS011;6175;50.956;11.064;2022-10-03T07:41:36;6.15;;;2.78;;
12224;SDS011;6175;50.956;11.064;2022-10-03T07:47:44;8.63;;;2.63;;
12224;SDS011;6175;50.956;11.064;2022-10-03T07:53:33;6.57;;;2.78;;
12224;SDS011;6175;50.956;11.064;2022-10-03T07:56:40;8.48;;;2.67;;
12224;SDS011;6175;50.956;11.064;2022-10-03T08:02:38;5.70;;;2.30;;
12224;SDS011;6175;50.956;11.064;2022-10-03T08:05:26;6.30;;;2.78;;
12224;SDS011;6175;50.956;11.064;2022-10-03T08:11:22;9.80;;;2.90;;
12224;SDS011;6175;50.956;11.064;2022-10-03T08:14:11;5.22;;;2.35;;
12224;SDS011;6175;50.956;11.064;2022-10-03T08:16:50;5.50;;;2.30;;
12224;SDS011;6175;50.956;11.064;2022-10-03T08:19:42;7.50;;;2.45;;
12224;SDS011;6175;50.956;11.064;2022-10-03T08:22:31;6.05;;;2.75;;
12224;SDS011;6175;50.956;11.064;2022-10-03T08:25:15;6.88;;;2.83;;
12224;SDS011;6175;50.956;11.064;2022-10-03T08:27:58;8.13;;;2.72;;
12224;SDS011;6175;50.956;11.064;2022-10-03T08:30:41;9.15;;;2.50;;
12224;SDS011;6175;50.956;11.064;2022-10-03T08:39:19;5.50;;;2.60;;
12224;SDS011;6175;50.956;11.064;2022-10-03T08:45:11;6.05;;;2.08;;
12224;SDS011;6175;50.956;11.064;2022-10-03T08:51:32;3.55;;;2.00;;
12224;SDS011;6175;50.956;11.064;2022-10-03T08:54:40;8.35;;;2.42;;
12224;SDS011;6175;50.956;11.064;2022-10-03T09:00:23;6.60;;;2.20;;
12224;SDS011;6175;50.956;11.064;2022-10-03T09:09:05;4.03;;;1.90;;
12224;SDS011;6175;50.956;11.064;2022-10-03T09:12:12;8.10;;;2.30;;
12224;SDS011;6175;50.956;11.064;2022-10-03T09:15:00;6.57;;;1.77;;
12224;SDS011;6175;50.956;11.064;2022-10-03T09:23:53;5.13;;;2.03;;
12224;SDS011;6175;50.956;11.064;2022-10-03T09:30:03;4.43;;;1.63;;
12224;SDS011;6175;50.956;11.064;2022-10-03T09:33:01;3.80;;;1.63;;
12224;SDS011;6175;50.956;11.064;2022-10-03T09:36:02;3.75;;;1.75;;
12224;SDS011;6175;50.956;11.064;2022-10-03T09:39:01;7.47;;;1.70;;
12224;SDS011;6175;50.956;11.064;2022-10-03T09:42:10;5.43;;;1.90;;
12224;SDS011;6175;50.956;11.064;2022-10-03T09:45:07;7.18;;;1.50;;
12224;SDS011;6175;50.956;11.064;2022-10-03T09:48:17;4.65;;;1.95;;
12224;SDS011;6175;50.956;11.064;2022-10-03T10:00:21;2.75;;;1.23;;
12224;SDS011;6175;50.956;11.064;2022-10-03T10:03:01;3.17;;;1.60;;
12224;SDS011;6175;50.956;11.064;2022-10-03T10:14:55;3.45;;;1.63;;
12224;SDS011;6175;50.956;11.064;2022-10-03T10:20:52;3.22;;;1.52;;
12224;SDS011;6175;50.956;11.064;2022-10-03T10:23:50;2.97;;;1.25;;
12224;SDS011;6175;50.956;11.064;2022-10-03T10:32:58;2.95;;;1.70;;
12224;SDS011;6175;50.956;11.064;2022-10-03T10:42:02;4.47;;;1.70;;
12224;SDS011;6175;50.956;11.064;2022-10-03T10:47:54;6.55;;;1.67;;
12224;SDS011;6175;50.956;11.064;2022-10-03T10:54:19;2.95;;;1.65;;
12224;SDS011;6175;50.956;11.064;2022-10-03T10:57:19;6.38;;;1.95;;
12224;SDS011;6175;50.956;11.064;2022-10-03T11:00:03;4.10;;;2.00;;
12224;SDS011;6175;50.956;11.064;2022-10-03T11:09:05;2.63;;;1.27;;
12224;SDS011;6175;50.956;11.064;2022-10-03T11:24:47;4.97;;;2.05;;
12224;SDS011;6175;50.956;11.064;2022-10-03T11:27:51;2.67;;;1.00;;
12224;SDS011;6175;50.956;11.064;2022-10-03T11:37:03;4.65;;;1.23;;
12224;SDS011;6175;50.956;11.064;2022-10-03T11:39:39;3.13;;;1.17;;
12224;SDS011;6175;50.956;11.064;2022-10-03T11:42:15;3.38;;;1.40;;
12224;SDS011;6175;50.956;11.064;2022-10-03T11:44:54;4.22;;;1.52;;
12224;SDS011;6175;50.956;11.064;2022-10-03T11:50:25;3.70;;;1.65;;
12224;SDS011;6175;50.956;11.064;2022-10-03T11:55:49;3.75;;;1.55;;
12224;SDS011;6175;50.956;11.064;2022-10-03T11:58:32;2.03;;;1.42;;
12224;SDS011;6175;50.956;11.064;2022-10-03T12:01:19;4.32;;;1.42;;
12224;SDS011;6175;50.956;11.064;2022-10-03T12:03:55;3.05;;;1.30;;
12224;SDS011;6175;50.956;11.064;2022-10-03T12:06:48;2.88;;;1.30;;
12224;SDS011;6175;50.956;11.064;2022-10-03T12:09:41;3.92;;;1.40;;
12224;SDS011;6175;50.956;11.064;2022-10-03T12:12:15;3.05;;;1.42;;
12224;SDS011;6175;50.956;11.064;2022-10-03T12:14:53;3.22;;;1.58;;
12224;SDS011;6175;50.956;11.064;2022-10-03T12:17:26;4.97;;;1.70;;
12224;SDS011;6175;50.956;11.064;2022-10-03T12:19:59;5.53;;;1.63;;
12224;SDS011;6175;50.956;11.064;2022-10-03T12:22:38;4.03;;;1.60;;
12224;SDS011;6175;50.956;11.064;2022-10-03T12:25:17;2.45;;;1.40;;
12224;SDS011;6175;50.956;11.064;2022-10-03T12:28:00;2.75;;;1.40;;
12224;SDS011;6175;50.956;11.064;2022-10-03T12:30:42;1.90;;;1.20;;
12224;SDS011;6175;50.956;11.064;2022-10-03T12:33:18;4.10;;;2.03;;
12224;SDS011;6175;50.956;11.064;2022-10-03T12:36:08;3.97;;;1.33;;
12224;SDS011;6175;50.956;11.064;2022-10-03T12:38:53;3.90;;;1.65;;
12224;SDS011;6175;50.956;11.064;2022-10-03T12:41:42;3.33;;;1.70;;
12224;SDS011;6175;50.956;11.064;2022-10-03T12:44:18;3.30;;;1.52;;
12224;SDS011;6175;50.956;11.064;2022-10-03T12:46:59;3.03;;;1.23;;
12224;SDS011;6175;50.956;11.064;2022-10-03T12:49:45;3.13;;;1.52;;
12224;SDS011;6175;50.956;11.064;2022-10-03T12:52:20;3.03;;;1.40;;
12224;SDS011;6175;50.956;11.064;2022-10-03T12:54:53;3.08;;;1.40;;
12224;SDS011;6175;50.956;11.064;2022-10-03T12:57:43;3.00;;;1.25;;
12224;SDS011;6175;50.956;11.064;2022-10-03T13:00:21;3.30;;;1.60;;
12224;SDS011;6175;50.956;11.064;2022-10-03T13:02:56;3.83;;;1.23;;
12224;SDS011;6175;50.956;11.064;2022-10-03T13:05:46;3.47;;;1.60;;
12224;SDS011;6175;50.956;11.064;2022-10-03T13:08:37;1.95;;;1.10;;
12224;SDS011;6175;50.956;11.064;2022-10-03T13:11:12;2.45;;;1.35;;
12224;SDS011;6175;50.956;11.064;2022-10-03T13:13:51;2.08;;;1.20;;
12224;SDS011;6175;50.956;11.064;2022-10-03T13:16:30;1.50;;;1.15;;
12224;SDS011;6175;50.956;11.064;2022-10-03T13:19:06;2.35;;;1.23;;
12224;SDS011;6175;50.956;11.064;2022-10-03T13:24:31;1.73;;;1.05;;
12224;SDS011;6175;50.956;11.064;2022-10-03T13:27:04;2.22;;;1.45;;
12224;SDS011;6175;50.956;11.064;2022-10-03T13:29:42;3.00;;;1.48;;
12224;SDS011;6175;50.956;11.064;2022-10-03T13:32:17;3.78;;;1.30;;
12224;SDS011;6175;50.956;11.064;2022-10-03T13:34:55;2.35;;;1.40;;
12224;SDS011;6175;50.956;11.064;2022-10-03T13:37:46;2.85;;;1.45;;
12224;SDS011;6175;50.956;11.064;2022-10-03T13:40:36;3.50;;;1.40;;
12224;SDS011;6175;50.956;11.064;2022-10-03T13:43:08;3.63;;;1.45;;
12224;SDS011;6175;50.956;11.064;2022-10-03T13:45:39;2.65;;;1.33;;
12224;SDS011;6175;50.956;11.064;2022-10-03T13:48:10;3.80;;;1.38;;
12224;SDS011;6175;50.956;11.064;2022-10-03T13:50:45;1.63;;;1.10;;
12224;SDS011;6175;50.956;11.064;2022-10-03T13:53:33;2.35;;;1.40;;
12224;SDS011;6175;50.956;11.064;2022-10-03T13:56:13;3.63;;;1.30;;
12224;SDS011;6175;50.956;11.064;2022-10-03T13:58:48;1.65;;;1.10;;
12224;SDS011;6175;50.956;11.064;2022-10-03T14:01:29;2.38;;;1.40;;
12224;SDS011;6175;50.956;11.064;2022-10-03T14:04:20;1.95;;;1.20;;
12224;SDS011;6175;50.956;11.064;2022-10-03T14:07:08;4.15;;;1.60;;
12224;SDS011;6175;50.956;11.064;2022-10-03T14:09:46;2.75;;;1.40;;
12224;SDS011;6175;50.956;11.064;2022-10-03T14:12:21;1.90;;;1.10;;
12224;SDS011;6175;50.956;11.064;2022-10-03T14:14:57;2.15;;;1.20;;
12224;SDS011;6175;50.956;11.064;2022-10-03T14:17:47;5.13;;;1.92;;
12224;SDS011;6175;50.956;11.064;2022-10-03T14:20:22;1.80;;;1.10;;
12224;SDS011;6175;50.956;11.064;2022-10-03T14:23:08;3.28;;;1.48;;
12224;SDS011;6175;50.956;11.064;2022-10-03T14:25:44;3.05;;;1.50;;
12224;SDS011;6175;50.956;11.064;2022-10-03T14:28:18;3.10;;;1.50;;
12224;SDS011;6175;50.956;11.064;2022-10-03T14:30:56;2.85;;;1.00;;
12224;SDS011;6175;50.956;11.064;2022-10-03T14:33:27;4.18;;;1.40;;
12224;SDS011;6175;50.956;11.064;2022-10-03T14:36:04;4.82;;;1.33;;
12224;SDS011;6175;50.956;11.064;2022-10-03T14:41:48;1.65;;;1.10;;
12224;SDS011;6175;50.956;11.064;2022-10-03T14:44:35;2.13;;;1.02;;
12224;SDS011;6175;50.956;11.064;2022-10-03T14:47:06;3.13;;;1.00;;
12224;SDS011;6175;50.956;11.064;2022-10-03T14:49:35;3.22;;;1.15;;
12224;SDS011;6175;50.956;11.064;2022-10-03T14:52:06;3.80;;;1.27;;
12224;SDS011;6175;50.956;11.064;2022-10-03T14:54:37;1.58;;;1.08;;
12224;SDS011;6175;50.956;11.064;2022-10-03T14:57:20;2.90;;;1.40;;
12224;SDS011;6175;50.956;11.064;2022-10-03T14:59:55;3.72;;;1.67;;
12224;SDS011;6175;50.956;11.064;2022-10-03T15:02:25;2.83;;;1.20;;
12224;SDS011;6175;50.956;11.064;2022-10-03T15:04:56;3.25;;;1.40;;
12224;SDS011;6175;50.956;11.064;2022-10-03T15:07:33;2.25;;;1.30;;
12224;SDS011;6175;50.956;11.064;2022-10-03T15:10:03;4.00;;;1.58;;
12224;SDS011;6175;50.956;11.064;2022-10-03T15:12:38;3.50;;;1.80;;
12224;SDS011;6175;50.956;11.064;2022-10-03T15:15:10;3.70;;;1.52;;
12224;SDS011;6175;50.956;11.064;2022-10-03T15:17:44;3.95;;;1.58;;
12224;SDS011;6175;50.956;11.064;2022-10-03T15:20:12;3.53;;;1.58;;
12224;SDS011;6175;50.956;11.064;2022-10-03T15:22:46;3.63;;;1.65;;
12224;SDS011;6175;50.956;11.064;2022-10-03T15:25:17;4.30;;;1.88;;
12224;SDS011;6175;50.956;11.064;2022-10-03T15:27:48;2.75;;;1.33;;
12224;SDS011;6175;50.956;11.064;2022-10-03T15:30:18;3.20;;;1.63;;
12224;SDS011;6175;50.956;11.064;2022-10-03T15:32:47;3.42;;;1.60;;
12224;SDS011;6175;50.956;11.064;2022-10-03T15:35:16;3.83;;;2.13;;
12224;SDS011;6175;50.956;11.064;2022-10-03T15:37:48;2.55;;;1.52;;
12224;SDS011;6175;50.956;11.064;2022-10-03T15:40:19;3.72;;;1.35;;
12224;SDS011;6175;50.956;11.064;2022-10-03T15:42:50;2.30;;;1.48;;
12224;SDS011;6175;50.956;11.064;2022-10-03T15:45:30;2.70;;;1.65;;
12224;SDS011;6175;50.956;11.064;2022-10-03T15:47:59;3.05;;;1.80;;
12224;SDS011;6175;50.956;11.064;2022-10-03T15:50:32;4.57;;;1.52;;
12224;SDS011;6175;50.956;11.064;2022-10-03T15:53:05;4.10;;;1.77;;
12224;SDS011;6175;50.956;11.064;2022-10-03T15:55:36;3.10;;;1.73;;
12224;SDS011;6175;50.956;11.064;2022-10-03T15:58:13;2.65;;;1.55;;
12224;SDS011;6175;50.956;11.064;2022-10-03T16:00:43;3.53;;;1.70;;
12224;SDS011;6175;50.956;11.064;2022-10-03T16:03:20;3.15;;;1.90;;
12224;SDS011;6175;50.956;11.064;2022-10-03T16:05:55;2.80;;;1.85;;
12224;SDS011;6175;50.956;11.064;2022-10-03T16:08:29;4.22;;;1.92;;
12224;SDS011;6175;50.956;11.064;2022-10-03T16:11:05;3.63;;;1.83;;
12224;SDS011;6175;50.956;11.064;2022-10-03T16:13:39;2.70;;;1.63;;
12224;SDS011;6175;50.956;11.064;2022-10-03T16:16:12;3.40;;;1.65;;
12224;SDS011;6175;50.956;11.064;2022-10-03T16:18:56;5.28;;;2.10;;
12224;SDS011;6175;50.956;11.064;2022-10-03T16:21:37;6.05;;;1.90;;
12224;SDS011;6175;50.956;11.064;2022-10-03T16:27:05;5.13;;;1.92;;
12224;SDS011;6175;50.956;11.064;2022-10-03T16:29:40;2.60;;;1.90;;
12224;SDS011;6175;50.956;11.064;2022-10-03T16:32:14;2.67;;;1.90;;
12224;SDS011;6175;50.956;11.064;2022-10-03T16:34:44;2.80;;;1.95;;
12224;SDS011;6175;50.956;11.064;2022-10-03T16:37:14;3.22;;;1.80;;
12224;SDS011;6175;50.956;11.064;2022-10-03T16:39:45;4.07;;;2.20;;
12224;SDS011;6175;50.956;11.064;2022-10-03T16:42:19;3.05;;;2.15;;
12224;SDS011;6175;50.956;11.064;2022-10-03T16:44:52;5.82;;;2.42;;
12224;SDS011;6175;50.956;11.064;2022-10-03T16:47:29;3.70;;;2.30;;
12224;SDS011;6175;50.956;11.064;2022-10-03T16:49:59;4.30;;;2.20;;
12224;SDS011;6175;50.956;11.064;2022-10-03T16:52:45;3.20;;;2.58;;
12224;SDS011;6175;50.956;11.064;2022-10-03T16:55:16;3.55;;;2.08;;
12224;SDS011;6175;50.956;11.064;2022-10-03T16:57:48;4.25;;;2.35;;
12224;SDS011;6175;50.956;11.064;2022-10-03T17:00:21;4.38;;;2.30;;
12224;SDS011;6175;50.956;11.064;2022-10-03T17:02:54;4.40;;;2.20;;
12224;SDS011;6175;50.956;11.064;2022-10-03T17:05:22;3.35;;;2.70;;
12224;SDS011;6175;50.956;11.064;2022-10-03T17:07:50;3.13;;;2.15;;
12224;SDS011;6175;50.956;11.064;2022-10-03T17:10:24;3.65;;;2.20;;
12224;SDS011;6175;50.956;11.064;2022-10-03T17:12:57;4.75;;;2.72;;
12224;SDS011;6175;50.956;11.064;2022-10-03T17:15:29;1.98;;;1.77;;
12224;SDS011;6175;50.956;11.064;2022-10-03T17:18:03;5.35;;;2.20;;
12224;SDS011;6175;50.956;11.064;2022-10-03T17:20:36;3.58;;;2.10;;
12224;SDS011;6175;50.956;11.064;2022-10-03T17:23:09;3.50;;;2.67;;
12224;SDS011;6175;50.956;11.064;2022-10-03T17:25:46;3.25;;;2.63;;
12224;SDS011;6175;50.956;11.064;2022-10-03T17:28:24;3.50;;;2.33;;
12224;SDS011;6175;50.956;11.064;2022-10-03T17:30:59;3.45;;;2.47;;
12224;SDS011;6175;50.956;11.064;2022-10-03T17:33:31;3.30;;;2.22;;
12224;SDS011;6175;50.956;11.064;2022-10-03T17:36:15;2.97;;;1.90;;
12224;SDS011;6175;50.956;11.064;2022-10-03T17:39:13;2.30;;;2.10;;
12224;SDS011;6175;50.956;11.064;2022-10-03T17:41:51;3.60;;;2.17;;
12224;SDS011;6175;50.956;11.064;2022-10-03T17:44:27;4.30;;;2.50;;
12224;SDS011;6175;50.956;11.064;2022-10-03T17:47:04;3.75;;;2.30;;
12224;SDS011;6175;50.956;11.064;2022-10-03T17:49:42;3.40;;;2.55;;
12224;SDS011;6175;50.956;11.064;2022-10-03T17:52:16;3.75;;;2.45;;
12224;SDS011;6175;50.956;11.064;2022-10-03T17:54:46;3.90;;;2.58;;
12224;SDS011;6175;50.956;11.064;2022-10-03T17:57:19;5.30;;;2.80;;
12224;SDS011;6175;50.956;11.064;2022-10-03T17:59:51;4.95;;;2.80;;
12224;SDS011;6175;50.956;11.064;2022-10-03T18:02:24;4.32;;;2.55;;
12224;SDS011;6175;50.956;11.064;2022-10-03T18:04:59;4.63;;;2.60;;
12224;SDS011;6175;50.956;11.064;2022-10-03T18:07:29;4.30;;;2.47;;
12224;SDS011;6175;50.956;11.064;2022-10-03T18:09:57;2.95;;;2.20;;
12224;SDS011;6175;50.956;11.064;2022-10-03T18:12:28;3.92;;;2.55;;
12224;SDS011;6175;50.956;11.064;2022-10-03T18:15:05;5.63;;;2.92;;
12224;SDS011;6175;50.956;11.064;2022-10-03T18:17:54;5.70;;;2.63;;
12224;SDS011;6175;50.956;11.064;2022-10-03T18:20:27;3.72;;;2.40;;
12224;SDS011;6175;50.956;11.064;2022-10-03T18:23:00;3.85;;;2.50;;
12224;SDS011;6175;50.956;11.064;2022-10-03T18:25:35;4.35;;;2.60;;
12224;SDS011;6175;50.956;11.064;2022-10-03T18:28:26;5.07;;;2.53;;
12224;SDS011;6175;50.956;11.064;2022-10-03T18:30:55;4.95;;;2.83;;
12224;SDS011;6175;50.956;11.064;2022-10-03T18:33:27;3.42;;;2.90;;
12224;SDS011;6175;50.956;11.064;2022-10-03T18:35:58;4.93;;;2.60;;
12224;SDS011;6175;50.956;11.064;2022-10-03T18:38:33;4.40;;;2.40;;
12224;SDS011;6175;50.956;11.064;2022-10-03T18:41:15;3.70;;;2.42;;
12224;SDS011;6175;50.956;11.064;2022-10-03T18:43:44;4.25;;;2.97;;
12224;SDS011;6175;50.956;11.064;2022-10-03T18:46:13;4.78;;;2.80;;
12224;SDS011;6175;50.956;11.064;2022-10-03T18:48:48;4.10;;;2.40;;
12224;SDS011;6175;50.956;11.064;2022-10-03T18:51:23;4.10;;;2.40;;
12224;SDS011;6175;50.956;11.064;2022-10-03T18:53:57;3.05;;;2.40;;
12224;SDS011;6175;50.956;11.064;2022-10-03T18:56:27;3.05;;;2.40;;
12224;SDS011;6175;50.956;11.064;2022-10-03T18:59:05;4.97;;;2.35;;
12224;SDS011;6175;50.956;11.064;2022-10-03T19:01:43;4.53;;;2.30;;
12224;SDS011;6175;50.956;11.064;2022-10-03T19:04:29;2.45;;;1.92;;
12224;SDS011;6175;50.956;11.064;2022-10-03T19:06:58;4.25;;;2.72;;
12224;SDS011;6175;50.956;11.064;2022-10-03T19:09:32;3.60;;;2.20;;
12224;SDS011;6175;50.956;11.064;2022-10-03T19:12:05;4.40;;;2.28;;
12224;SDS011;6175;50.956;11.064;2022-10-03T19:14:39;4.20;;;2.35;;
12224;SDS011;6175;50.956;11.064;2022-10-03T19:17:20;4.97;;;2.38;;
12224;SDS011;6175;50.956;11.064;2022-10-03T19:19:56;6.25;;;2.53;;
12224;SDS011;6175;50.956;11.064;2022-10-03T19:22:27;2.85;;;2.10;;
12224;SDS011;6175;50.956;11.064;2022-10-03T19:24:58;4.22;;;2.10;;
12224;SDS011;6175;50.956;11.064;2022-10-03T19:27:38;4.40;;;2.20;;
12224;SDS011;6175;50.956;11.064;2022-10-03T19:30:07;5.72;;;2.63;;
12224;SDS011;6175;50.956;11.064;2022-10-03T19:32:44;2.90;;;2.15;;
12224;SDS011;6175;50.956;11.064;2022-10-03T19:35:16;4.97;;;2.50;;
12224;SDS011;6175;50.956;11.064;2022-10-03T19:37:47;3.10;;;2.00;;
12224;SDS011;6175;50.956;11.064;2022-10-03T19:40:23;5.18;;;2.38;;
12224;SDS011;6175;50.956;11.064;2022-10-03T19:43:04;4.25;;;2.35;;